createdAt,value
2019-05-29T00:00:12.977Z,4.17
2019-05-29T00:02:42.823Z,3.77
2019-05-29T00:05:12.301Z,5.45
2019-05-29T00:07:41.382Z,3.45
2019-05-29T00:10:10.620Z,2.17
2019-05-29T00:12:39.680Z,4.62
2019-05-29T00:15:10.113Z,1.75
2019-05-29T00:17:39.447Z,3.22
2019-05-29T00:20:08.836Z,3.90
2019-05-29T00:22:37.870Z,2.75
2019-05-29T00:25:08.523Z,2.40
2019-05-29T00:27:37.787Z,3.12
2019-05-29T00:30:08.466Z,5.60
2019-05-29T00:32:38.271Z,2.75
2019-05-29T00:35:08.253Z,3.20
2019-05-29T00:37:37.415Z,3.30
2019-05-29T00:40:08.738Z,4.15
2019-05-29T00:42:38.367Z,3.17
2019-05-29T00:45:11.484Z,5.20
2019-05-29T00:47:40.542Z,3.83
2019-05-29T00:50:10.032Z,4.78
2019-05-29T00:52:39.238Z,4.10
2019-05-29T00:55:08.801Z,3.95
2019-05-29T00:57:38.061Z,6.97
2019-05-29T01:00:07.681Z,3.08
2019-05-29T01:02:36.701Z,2.58
2019-05-29T01:05:09.861Z,4.47
2019-05-29T01:07:39.172Z,4.97
2019-05-29T01:10:10.503Z,2.83
2019-05-29T01:12:39.899Z,3.12
2019-05-29T01:15:09.121Z,4.22
2019-05-29T01:17:38.269Z,4.05
2019-05-29T01:20:07.837Z,3.27
2019-05-29T01:22:37.043Z,4.08
2019-05-29T01:25:06.757Z,5.58
2019-05-29T01:27:35.788Z,3.98
2019-05-29T01:30:06.847Z,3.20
2019-05-29T01:32:35.859Z,4.58
2019-05-29T01:35:09.451Z,4.60
2019-05-29T01:37:38.667Z,4.12
2019-05-29T01:40:19.183Z,5.33
2019-05-29T01:42:38.698Z,4.08
2019-05-29T01:45:08.697Z,4.55
2019-05-29T01:47:37.870Z,3.92
2019-05-29T01:50:07.905Z,3.70
2019-05-29T01:52:36.904Z,3.77
2019-05-29T01:55:07.590Z,4.55
2019-05-29T01:57:36.563Z,4.05
2019-05-29T02:00:09.186Z,3.52
2019-05-29T02:02:38.491Z,5.30
2019-05-29T02:05:08.574Z,5.33
2019-05-29T02:07:37.566Z,4.28
2019-05-29T02:10:08.389Z,4.60
2019-05-29T02:12:37.714Z,4.33
2019-05-29T02:15:23.131Z,3.55
2019-05-29T02:17:38.366Z,3.75
2019-05-29T02:20:09.452Z,3.47
2019-05-29T02:22:38.519Z,4.80
2019-05-29T02:25:08.417Z,3.30
2019-05-29T02:27:37.406Z,5.47
2019-05-29T02:30:08.337Z,3.30
2019-05-29T02:32:37.564Z,3.87
2019-05-29T02:35:07.754Z,3.60
2019-05-29T02:37:36.864Z,3.83
2019-05-29T02:40:07.286Z,3.75
2019-05-29T02:42:36.533Z,3.67
2019-05-29T02:45:07.496Z,3.50
2019-05-29T02:47:36.704Z,8.20
2019-05-29T02:50:07.971Z,4.67
2019-05-29T02:52:37.118Z,3.80
2019-05-29T02:55:07.684Z,4.90
2019-05-29T02:57:36.721Z,4.90
2019-05-29T03:00:07.207Z,3.98
2019-05-29T03:02:36.353Z,4.15
2019-05-29T03:05:08.630Z,4.28
2019-05-29T03:07:38.054Z,4.42
2019-05-29T03:10:09.614Z,4.22
2019-05-29T03:12:39.250Z,3.85
2019-05-29T03:15:08.817Z,3.47
2019-05-29T03:17:38.109Z,3.35
2019-05-29T03:20:07.923Z,7.60
2019-05-29T03:22:37.225Z,3.90
2019-05-29T03:25:07.402Z,3.67
2019-05-29T03:27:38.097Z,3.30
2019-05-29T03:30:08.331Z,3.50
2019-05-29T03:32:46.730Z,3.30
2019-05-29T03:35:08.162Z,4.42
2019-05-29T03:37:38.818Z,3.58
2019-05-29T03:40:08.412Z,3.30
2019-05-29T03:42:38.985Z,3.50
2019-05-29T03:45:08.514Z,4.10
2019-05-29T03:47:37.602Z,4.00
2019-05-29T03:50:07.345Z,4.75
2019-05-29T03:52:36.348Z,5.35
2019-05-29T03:55:07.196Z,4.70
2019-05-29T03:57:37.830Z,3.60
2019-05-29T04:00:08.105Z,4.10
2019-05-29T04:02:38.291Z,4.75
2019-05-29T04:05:07.750Z,3.67
2019-05-29T04:07:38.140Z,3.17
2019-05-29T04:10:08.315Z,2.42
2019-05-29T04:12:38.178Z,2.87
2019-05-29T04:15:08.446Z,2.40
2019-05-29T04:17:38.980Z,2.40
2019-05-29T04:20:08.294Z,2.12
2019-05-29T04:22:43.440Z,3.58
2019-05-29T04:25:13.851Z,2.42
2019-05-29T04:27:43.835Z,1.80
2019-05-29T04:30:13.632Z,2.05
2019-05-29T04:32:42.687Z,1.40
2019-05-29T04:35:11.897Z,1.70
2019-05-29T04:37:40.870Z,1.80
2019-05-29T04:40:10.454Z,1.60
2019-05-29T04:42:40.220Z,2.35
2019-05-29T04:45:10.213Z,1.50
2019-05-29T04:47:39.793Z,1.80
2019-05-29T04:50:10.736Z,1.95
2019-05-29T04:52:40.199Z,2.30
2019-05-29T04:55:10.133Z,1.92
2019-05-29T04:57:39.418Z,1.75
2019-05-29T05:00:09.368Z,1.87
2019-05-29T05:02:39.402Z,4.20
2019-05-29T05:05:09.470Z,1.75
2019-05-29T05:07:39.653Z,3.45
2019-05-29T05:10:09.605Z,1.70
2019-05-29T05:12:40.065Z,1.65
2019-05-29T05:15:10.152Z,1.60
2019-05-29T05:17:40.136Z,2.72
2019-05-29T05:20:09.925Z,1.77
2019-05-29T05:22:40.947Z,2.55
2019-05-29T05:25:10.737Z,2.92
2019-05-29T05:27:40.664Z,1.67
2019-05-29T05:30:10.162Z,1.72
2019-05-29T05:32:39.139Z,2.58
2019-05-29T05:35:08.242Z,2.00
2019-05-29T05:37:37.507Z,5.47
2019-05-29T05:40:07.959Z,3.25
2019-05-29T05:42:37.242Z,1.75
2019-05-29T05:45:07.679Z,1.77
2019-05-29T05:47:50.010Z,2.47
2019-05-29T05:50:09.021Z,1.92
2019-05-29T05:52:39.416Z,1.98
2019-05-29T05:55:08.757Z,1.50
2019-05-29T05:57:38.022Z,1.90
2019-05-29T06:00:09.997Z,1.60
2019-05-29T06:02:40.103Z,2.70
2019-05-29T06:05:10.281Z,3.33
2019-05-29T06:07:40.419Z,2.30
2019-05-29T06:10:10.056Z,1.25
2019-05-29T06:12:40.488Z,1.30
2019-05-29T06:15:10.087Z,1.57
2019-05-29T06:17:40.744Z,3.52
2019-05-29T06:20:10.366Z,3.22
2019-05-29T06:22:39.419Z,1.55
2019-05-29T06:25:08.946Z,2.95
2019-05-29T06:27:39.191Z,2.15
2019-05-29T06:30:09.639Z,2.45
2019-05-29T06:32:39.464Z,6.10
2019-05-29T06:35:09.304Z,4.15
2019-05-29T06:37:39.473Z,1.75
2019-05-29T06:40:09.066Z,4.78
2019-05-29T06:42:38.265Z,1.87
2019-05-29T06:45:08.585Z,3.47
2019-05-29T06:47:38.777Z,2.22
2019-05-29T06:50:08.433Z,3.72
2019-05-29T06:52:37.678Z,1.95
2019-05-29T06:55:06.851Z,1.80
2019-05-29T06:57:36.168Z,2.85
2019-05-29T07:00:09.287Z,2.10
2019-05-29T07:02:38.600Z,4.22
2019-05-29T07:05:07.971Z,2.00
2019-05-29T07:07:38.082Z,2.55
2019-05-29T07:10:07.910Z,2.52
2019-05-29T07:12:38.340Z,3.05
2019-05-29T07:15:08.106Z,3.80
2019-05-29T07:17:38.563Z,2.27
2019-05-29T07:20:08.293Z,2.83
2019-05-29T07:22:38.738Z,2.37
2019-05-29T07:25:08.513Z,2.17
2019-05-29T07:27:38.699Z,1.98
2019-05-29T07:30:09.031Z,2.50
2019-05-29T07:32:40.440Z,2.40
2019-05-29T07:35:09.429Z,2.65
2019-05-29T07:37:39.701Z,2.33
2019-05-29T07:40:09.201Z,3.10
2019-05-29T07:42:40.185Z,2.12
2019-05-29T07:45:10.077Z,3.95
2019-05-29T07:47:40.405Z,3.15
2019-05-29T07:50:12.255Z,3.27
2019-05-29T07:52:43.081Z,4.72
2019-05-29T07:55:12.642Z,2.87
2019-05-29T07:57:42.765Z,2.95
2019-05-29T08:00:12.659Z,4.55
2019-05-29T08:02:42.929Z,3.00
2019-05-29T08:05:13.878Z,3.22
2019-05-29T08:07:43.494Z,3.42
2019-05-29T08:10:13.312Z,4.25
2019-05-29T08:12:49.991Z,5.22
2019-05-29T08:15:13.624Z,4.12
2019-05-29T08:17:44.053Z,4.92
2019-05-29T08:20:14.073Z,4.30
2019-05-29T08:22:44.396Z,5.78
2019-05-29T08:25:15.403Z,4.10
2019-05-29T08:27:44.854Z,4.78
2019-05-29T08:30:15.803Z,5.92
2019-05-29T08:32:45.368Z,4.60
2019-05-29T08:35:15.726Z,4.08
2019-05-29T08:37:45.029Z,5.72
2019-05-29T08:40:17.234Z,4.12
2019-05-29T08:42:47.411Z,4.97
2019-05-29T08:45:18.196Z,4.58
2019-05-29T08:47:47.743Z,5.08
2019-05-29T08:50:19.160Z,4.80
2019-05-29T08:52:48.185Z,6.12
2019-05-29T08:55:17.173Z,5.20
2019-05-29T08:57:46.402Z,6.33
2019-05-29T09:00:16.975Z,11.43
2019-05-29T09:02:46.611Z,5.65
2019-05-29T09:05:16.066Z,6.97
2019-05-29T09:07:46.344Z,8.10
2019-05-29T09:10:15.966Z,7.67
2019-05-29T09:12:50.164Z,18.30
2019-05-29T09:15:21.287Z,7.03
2019-05-29T09:17:47.073Z,5.80
2019-05-29T09:20:32.047Z,6.33
2019-05-29T09:22:47.363Z,6.10
2019-05-29T09:25:17.028Z,5.90
2019-05-29T09:27:46.454Z,6.35
2019-05-29T09:30:17.180Z,4.55
2019-05-29T09:32:50.949Z,4.15
2019-05-29T09:35:20.143Z,4.70
2019-05-29T09:37:49.601Z,4.17
2019-05-29T09:40:21.046Z,3.70
2019-05-29T09:42:50.301Z,3.90
2019-05-29T09:45:19.737Z,5.85
2019-05-29T09:47:48.921Z,4.95
2019-05-29T09:50:18.679Z,4.28
2019-05-29T09:52:48.735Z,5.83
2019-05-29T09:55:18.637Z,4.65
2019-05-29T09:57:48.430Z,4.62
2019-05-29T10:00:18.014Z,5.75
2019-05-29T10:02:47.312Z,5.08
2019-05-29T10:05:16.763Z,4.65
2019-05-29T10:07:46.042Z,5.42
2019-05-29T10:10:15.969Z,5.08
2019-05-29T10:12:45.178Z,4.97
2019-05-29T10:15:15.257Z,6.50
2019-05-29T10:17:44.403Z,7.65
2019-05-29T10:20:15.388Z,6.28
2019-05-29T10:22:44.540Z,5.95
2019-05-29T10:25:14.410Z,7.87
2019-05-29T10:27:43.361Z,7.33
2019-05-29T10:30:13.703Z,6.95
2019-05-29T10:32:44.366Z,6.83
2019-05-29T10:35:14.086Z,7.08
2019-05-29T10:37:44.443Z,6.30
2019-05-29T10:40:14.146Z,7.53
2019-05-29T10:42:43.310Z,7.40
2019-05-29T10:45:12.627Z,6.45
2019-05-29T10:47:41.667Z,5.42
2019-05-29T10:50:11.790Z,5.60
2019-05-29T10:52:40.883Z,5.90
2019-05-29T10:55:11.102Z,6.25
2019-05-29T10:57:40.190Z,5.40
2019-05-29T11:00:09.907Z,5.53
2019-05-29T11:02:38.920Z,5.45
2019-05-29T11:05:08.983Z,8.38
2019-05-29T11:07:38.083Z,6.40
2019-05-29T11:10:12.655Z,6.22
2019-05-29T11:12:40.203Z,2.67
2019-05-29T11:15:20.762Z,3.37
2019-05-29T11:17:40.929Z,2.00
2019-05-29T11:20:11.441Z,3.22
2019-05-29T11:22:40.481Z,2.50
2019-05-29T11:25:22.619Z,2.50
2019-05-29T11:27:41.698Z,2.67
2019-05-29T11:30:12.486Z,3.08
2019-05-29T11:32:41.646Z,3.08
2019-05-29T11:35:11.974Z,4.00
2019-05-29T11:37:41.123Z,4.08
2019-05-29T11:40:10.579Z,2.15
2019-05-29T11:42:39.790Z,1.90
2019-05-29T11:45:10.933Z,2.20
2019-05-29T11:47:40.119Z,2.47
2019-05-29T11:50:19.124Z,2.65
2019-05-29T11:52:43.834Z,3.02
2019-05-29T11:55:13.032Z,2.52
2019-05-29T11:57:42.021Z,2.80
2019-05-29T12:00:19.885Z,4.80
2019-05-29T12:02:44.835Z,4.08
2019-05-29T12:05:15.038Z,3.92
2019-05-29T12:07:44.077Z,3.60
2019-05-29T12:10:14.793Z,3.67
2019-05-29T12:12:44.040Z,3.92
2019-05-29T12:15:16.652Z,3.27
2019-05-29T12:17:44.630Z,4.28
2019-05-29T12:20:31.632Z,4.05
2019-05-29T12:23:11.253Z,4.33
2019-05-29T12:25:18.238Z,3.85
2019-05-29T12:27:47.516Z,4.80
2019-05-29T12:30:18.630Z,3.60
2019-05-29T12:32:47.732Z,3.98
2019-05-29T12:35:17.020Z,5.75
2019-05-29T12:37:46.010Z,3.92
2019-05-29T12:40:15.886Z,3.65
2019-05-29T12:42:45.342Z,4.50
2019-05-29T12:45:14.743Z,3.60
2019-05-29T12:47:43.982Z,4.53
2019-05-29T12:50:15.486Z,4.37
2019-05-29T12:52:44.677Z,4.67
2019-05-29T12:55:16.516Z,4.65
2019-05-29T12:57:46.682Z,4.03
2019-05-29T13:00:17.929Z,5.05
2019-05-29T13:02:47.117Z,4.80
2019-05-29T13:05:20.499Z,4.42
2019-05-29T13:07:47.709Z,4.42
2019-05-29T13:10:30.190Z,5.25
2019-05-29T13:12:48.581Z,4.65
2019-05-29T13:15:18.552Z,4.33
2019-05-29T13:17:47.507Z,5.10
2019-05-29T13:20:22.050Z,4.15
2019-05-29T13:22:50.355Z,4.42
2019-05-29T13:25:19.628Z,4.33
2019-05-29T13:27:49.022Z,3.65
2019-05-29T13:30:19.125Z,3.75
2019-05-29T13:32:48.442Z,4.00
2019-05-29T13:35:21.748Z,4.30
2019-05-29T13:37:49.065Z,5.20
2019-05-29T13:40:18.739Z,4.35
2019-05-29T13:42:49.498Z,4.25
2019-05-29T13:45:20.841Z,4.20
2019-05-29T13:47:49.845Z,3.58
2019-05-29T13:50:18.943Z,4.05
2019-05-29T13:52:48.230Z,3.47
2019-05-29T13:55:17.678Z,4.55
2019-05-29T13:57:46.648Z,3.08
2019-05-29T14:00:32.232Z,2.17
2019-05-29T14:02:48.310Z,1.50
2019-05-29T14:05:18.034Z,2.02
2019-05-29T14:07:47.038Z,2.50
2019-05-29T14:10:16.332Z,1.90
2019-05-29T14:12:45.820Z,1.80
2019-05-29T14:15:15.667Z,3.52
2019-05-29T14:17:44.913Z,1.77
2019-05-29T14:20:14.962Z,1.92
2019-05-29T14:22:44.016Z,1.50
2019-05-29T14:25:13.502Z,1.40
2019-05-29T14:27:42.882Z,1.80
2019-05-29T14:30:14.080Z,1.70
2019-05-29T14:32:43.480Z,1.80
2019-05-29T14:35:13.526Z,1.77
2019-05-29T14:37:42.935Z,3.17
2019-05-29T14:40:13.465Z,2.67
2019-05-29T14:42:42.426Z,2.52
2019-05-29T14:45:12.488Z,2.98
2019-05-29T14:47:42.407Z,3.22
2019-05-29T14:50:13.361Z,3.40
2019-05-29T14:52:42.599Z,3.20
2019-05-29T14:55:17.730Z,3.98
2019-05-29T14:57:44.516Z,3.75
2019-05-29T15:00:24.901Z,5.33
2019-05-29T15:02:46.088Z,4.75
2019-05-29T15:05:15.468Z,4.30
2019-05-29T15:07:44.540Z,5.80
2019-05-29T15:10:24.936Z,6.95
2019-05-29T15:12:44.716Z,5.22
2019-05-29T15:15:16.541Z,4.75
2019-05-29T15:17:46.768Z,5.55
2019-05-29T15:20:17.032Z,5.25
2019-05-29T15:22:46.501Z,5.75
2019-05-29T15:25:23.586Z,4.95
2019-05-29T15:27:46.621Z,4.60
2019-05-29T15:30:22.286Z,4.70
2019-05-29T15:32:47.222Z,5.45
2019-05-29T15:35:19.838Z,5.37
2019-05-29T15:37:48.527Z,6.45
2019-05-29T15:40:17.991Z,5.10
2019-05-29T15:42:47.098Z,5.65
2019-05-29T15:45:18.359Z,4.97
2019-05-29T15:47:48.088Z,4.33
2019-05-29T15:50:18.049Z,4.28
2019-05-29T15:52:47.390Z,5.72
2019-05-29T15:55:28.119Z,5.90
2019-05-29T15:57:47.885Z,4.90
2019-05-29T16:00:17.845Z,5.05
2019-05-29T16:02:49.118Z,5.95
2019-05-29T16:05:19.200Z,5.22
2019-05-29T16:07:48.351Z,5.12
2019-05-29T16:10:20.527Z,3.95
2019-05-29T16:12:48.687Z,4.83
2019-05-29T16:15:20.600Z,3.83
2019-05-29T16:17:49.779Z,3.20
2019-05-29T16:20:19.489Z,3.80
2019-05-29T16:22:48.468Z,4.00
2019-05-29T16:25:19.174Z,4.50
2019-05-29T16:27:48.414Z,4.60
2019-05-29T16:30:18.156Z,5.75
2019-05-29T16:32:48.211Z,5.70
2019-05-29T16:35:19.343Z,3.85
2019-05-29T16:37:48.626Z,5.53
2019-05-29T16:40:18.347Z,4.45
2019-05-29T16:42:47.363Z,4.30
2019-05-29T16:45:18.305Z,5.97
2019-05-29T16:47:47.953Z,6.12
2019-05-29T16:50:19.242Z,5.05
2019-05-29T16:52:48.802Z,5.00
2019-05-29T16:55:19.353Z,5.15
2019-05-29T16:57:48.723Z,5.65
2019-05-29T17:00:19.596Z,3.33
2019-05-29T17:02:49.049Z,3.85
2019-05-29T17:05:20.486Z,4.08
2019-05-29T17:07:50.081Z,4.05
2019-05-29T17:10:22.374Z,3.33
2019-05-29T17:12:51.683Z,4.45
2019-05-29T17:15:20.845Z,4.53
2019-05-29T17:17:50.078Z,3.67
2019-05-29T17:20:22.701Z,3.70
2019-05-29T17:22:52.067Z,3.72
2019-05-29T17:25:25.522Z,4.03
2019-05-29T17:27:51.879Z,4.10
2019-05-29T17:30:25.096Z,3.90
2019-05-29T17:32:54.469Z,4.28
2019-05-29T17:35:23.743Z,5.30
2019-05-29T17:37:52.820Z,4.60
2019-05-29T17:40:23.481Z,4.62
2019-05-29T17:42:52.754Z,5.10
2019-05-29T17:45:25.321Z,4.60
2019-05-29T17:47:53.194Z,4.72
2019-05-29T17:50:24.542Z,4.87
2019-05-29T17:52:53.540Z,4.95
2019-05-29T17:55:24.598Z,4.87
2019-05-29T17:57:53.557Z,6.37
2019-05-29T18:00:24.832Z,5.60
2019-05-29T18:02:54.143Z,5.03
2019-05-29T18:05:24.672Z,5.12
2019-05-29T18:07:54.076Z,5.22
2019-05-29T18:10:25.715Z,5.50
2019-05-29T18:12:55.141Z,6.60
2019-05-29T18:15:25.686Z,6.00
2019-05-29T18:17:55.188Z,6.22
2019-05-29T18:20:25.718Z,7.45
2019-05-29T18:22:54.930Z,5.90
2019-05-29T18:25:24.131Z,4.92
2019-05-29T18:27:53.385Z,4.92
2019-05-29T18:30:22.701Z,5.00
2019-05-29T18:32:51.780Z,5.17
2019-05-29T18:35:20.894Z,4.70
2019-05-29T18:37:49.923Z,4.83
2019-05-29T18:40:20.330Z,5.03
2019-05-29T18:42:49.434Z,5.33
2019-05-29T18:45:22.389Z,5.05
2019-05-29T18:47:49.502Z,5.00
2019-05-29T18:50:19.212Z,5.47
2019-05-29T18:52:48.393Z,5.50
2019-05-29T18:55:18.024Z,5.53
2019-05-29T18:57:46.979Z,4.97
2019-05-29T19:00:18.233Z,3.42
2019-05-29T19:02:47.311Z,4.28
2019-05-29T19:05:17.145Z,4.17
2019-05-29T19:07:46.150Z,3.52
2019-05-29T19:10:15.561Z,2.60
2019-05-29T19:12:44.689Z,2.83
2019-05-29T19:15:14.920Z,4.55
2019-05-29T19:17:43.883Z,3.98
2019-05-29T19:20:13.525Z,3.92
2019-05-29T19:22:42.616Z,4.55
2019-05-29T19:25:12.058Z,3.62
2019-05-29T19:27:42.299Z,4.30
2019-05-29T19:30:12.261Z,3.50
2019-05-29T19:32:41.474Z,3.55
2019-05-29T19:35:11.346Z,3.75
2019-05-29T19:37:40.434Z,3.47
2019-05-29T19:40:10.130Z,3.22
2019-05-29T19:42:39.271Z,3.83
2019-05-29T19:45:09.993Z,3.90
2019-05-29T19:47:39.093Z,4.40
2019-05-29T19:50:11.450Z,4.40
2019-05-29T19:52:40.574Z,3.75
2019-05-29T19:55:10.012Z,4.03
2019-05-29T19:57:54.590Z,4.95
2019-05-29T20:00:10.971Z,4.20
2019-05-29T20:02:40.313Z,3.92
2019-05-29T20:05:10.071Z,4.78
2019-05-29T20:07:39.128Z,4.58
2019-05-29T20:10:10.214Z,4.37
2019-05-29T20:12:39.269Z,4.62
2019-05-29T20:15:08.917Z,4.47
2019-05-29T20:17:38.588Z,4.50
2019-05-29T20:20:08.129Z,5.62
2019-05-29T20:22:38.956Z,5.25
2019-05-29T20:25:08.852Z,5.20
2019-05-29T20:27:38.534Z,5.12
2019-05-29T20:30:10.801Z,5.03
2019-05-29T20:32:39.813Z,5.40
2019-05-29T20:35:09.071Z,7.05
2019-05-29T20:37:38.477Z,5.92
2019-05-29T20:40:08.400Z,4.83
2019-05-29T20:42:38.443Z,5.37
2019-05-29T20:45:09.473Z,5.03
2019-05-29T20:47:39.818Z,5.22
2019-05-29T20:50:10.248Z,5.35
2019-05-29T20:52:39.619Z,5.47
2019-05-29T20:55:09.036Z,4.75
2019-05-29T20:57:38.145Z,4.30
2019-05-29T21:00:10.790Z,5.10
2019-05-29T21:02:40.435Z,4.85
2019-05-29T21:05:11.477Z,4.60
2019-05-29T21:07:40.998Z,5.20
2019-05-29T21:10:12.028Z,5.12
2019-05-29T21:12:44.312Z,4.62
2019-05-29T21:15:13.029Z,5.60
2019-05-29T21:17:42.339Z,5.45
2019-05-29T21:20:11.678Z,5.67
2019-05-29T21:22:40.830Z,5.35
2019-05-29T21:25:15.195Z,6.25
2019-05-29T21:27:45.433Z,7.05
2019-05-29T21:30:12.772Z,6.70
2019-05-29T21:32:41.987Z,8.23
2019-05-29T21:35:11.482Z,5.55
2019-05-29T21:37:40.506Z,5.83
2019-05-29T21:40:10.150Z,7.12
2019-05-29T21:42:40.497Z,5.90
2019-05-29T21:45:10.749Z,6.12
2019-05-29T21:47:40.968Z,5.70
2019-05-29T21:50:11.409Z,5.72
2019-05-29T21:52:41.469Z,6.08
2019-05-29T21:55:10.844Z,6.33
2019-05-29T21:57:42.323Z,6.17
2019-05-29T22:00:15.280Z,9.73
2019-05-29T22:02:44.621Z,6.45
2019-05-29T22:05:14.385Z,5.67
2019-05-29T22:07:44.720Z,6.78
2019-05-29T22:10:14.508Z,6.08
2019-05-29T22:12:43.842Z,7.97
2019-05-29T22:15:13.261Z,6.40
2019-05-29T22:17:42.476Z,6.90
2019-05-29T22:20:11.657Z,7.05
2019-05-29T22:22:41.052Z,8.03
2019-05-29T22:25:10.801Z,7.10
2019-05-29T22:27:39.920Z,6.45
2019-05-29T22:30:09.828Z,8.08
2019-05-29T22:32:38.852Z,7.10
2019-05-29T22:35:08.643Z,9.18
2019-05-29T22:37:37.905Z,8.58
2019-05-29T22:40:08.125Z,7.05
2019-05-29T22:42:37.333Z,6.67
2019-05-29T22:45:06.957Z,7.33
2019-05-29T22:47:36.113Z,8.03
2019-05-29T22:50:06.436Z,7.28
2019-05-29T22:52:35.552Z,6.28
2019-05-29T22:55:06.359Z,8.83
2019-05-29T22:57:35.656Z,7.12
2019-05-29T23:00:07.268Z,11.03
2019-05-29T23:02:36.542Z,8.05
2019-05-29T23:05:07.821Z,8.25
2019-05-29T23:07:37.210Z,7.50
2019-05-29T23:10:08.296Z,9.53
2019-05-29T23:12:37.407Z,5.90
2019-05-29T23:15:07.722Z,7.50
2019-05-29T23:17:36.780Z,6.53
2019-05-29T23:20:07.839Z,7.15
2019-05-29T23:22:36.974Z,6.42
2019-05-29T23:25:06.928Z,6.45
2019-05-29T23:27:36.419Z,5.75
2019-05-29T23:30:08.984Z,6.58
2019-05-29T23:32:38.339Z,6.95
2019-05-29T23:35:08.266Z,7.70
2019-05-29T23:37:37.400Z,7.95
2019-05-29T23:40:07.380Z,7.72
2019-05-29T23:42:36.515Z,6.55
2019-05-29T23:45:07.905Z,7.45
2019-05-29T23:47:37.377Z,8.90
2019-05-29T23:50:09.961Z,8.50
2019-05-29T23:52:39.172Z,7.70
2019-05-29T23:55:08.795Z,6.72
2019-05-29T23:57:37.933Z,7.70
